createdAt,value
2022-08-18T00:00:18.357Z,0.00
2022-08-18T00:01:14.588Z,0.00
2022-08-18T00:02:14.529Z,0.00
2022-08-18T00:03:53.488Z,0.00
2022-08-18T00:04:25.201Z,0.00
2022-08-18T00:05:15.344Z,0.00
2022-08-18T00:06:14.337Z,0.00
2022-08-18T00:07:14.345Z,0.00
2022-08-18T00:08:14.345Z,0.00
2022-08-18T00:09:14.338Z,0.00
2022-08-18T00:10:18.224Z,0.00
2022-08-18T00:11:14.327Z,0.00
2022-08-18T00:12:14.326Z,0.00
2022-08-18T00:13:14.315Z,0.00
2022-08-18T00:14:22.193Z,0.00
2022-08-18T00:15:14.294Z,0.00
2022-08-18T00:16:14.291Z,0.00
2022-08-18T00:17:14.289Z,0.00
2022-08-18T00:18:14.286Z,0.00
2022-08-18T00:19:14.276Z,0.00
2022-08-18T00:20:14.272Z,0.00
2022-08-18T00:21:14.257Z,0.00
2022-08-18T00:22:15.319Z,0.00
2022-08-18T00:23:14.268Z,0.00
2022-08-18T00:24:14.266Z,0.00
2022-08-18T00:25:14.239Z,0.00
2022-08-18T00:26:14.245Z,0.00
2022-08-18T00:27:14.226Z,0.00
2022-08-18T00:28:14.234Z,0.00
2022-08-18T00:29:14.234Z,0.00
2022-08-18T00:30:14.201Z,0.00
2022-08-18T00:31:14.221Z,0.00
2022-08-18T00:32:14.194Z,0.00
2022-08-18T00:33:14.207Z,0.00
2022-08-18T00:34:14.221Z,0.00
2022-08-18T00:35:14.198Z,0.00
2022-08-18T00:36:14.164Z,0.00
2022-08-18T00:37:14.163Z,0.00
2022-08-18T00:38:24.204Z,0.00
2022-08-18T00:39:15.176Z,0.00
2022-08-18T00:40:14.263Z,0.00
2022-08-18T00:41:14.145Z,0.00
2022-08-18T00:42:14.133Z,0.00
2022-08-18T00:43:15.156Z,0.00
2022-08-18T00:44:14.126Z,0.00
2022-08-18T00:45:14.133Z,0.00
2022-08-18T00:46:14.120Z,0.00
2022-08-18T00:47:14.110Z,0.00
2022-08-18T00:48:15.113Z,0.00
2022-08-18T00:49:14.227Z,0.00
2022-08-18T00:50:15.473Z,0.00
2022-08-18T00:51:14.096Z,0.00
2022-08-18T00:52:14.077Z,0.00
2022-08-18T00:53:14.069Z,0.00
2022-08-18T00:54:14.092Z,0.00
2022-08-18T00:55:15.076Z,0.00
2022-08-18T00:56:14.052Z,0.00
2022-08-18T00:57:14.043Z,0.00
2022-08-18T00:58:14.036Z,0.00
2022-08-18T00:59:14.045Z,0.00
2022-08-18T01:00:14.162Z,0.00
2022-08-18T01:01:14.149Z,0.00
2022-08-18T01:02:14.022Z,0.00
2022-08-18T01:03:14.019Z,0.00
2022-08-18T01:04:14.004Z,0.00
2022-08-18T01:05:14.114Z,0.00
2022-08-18T01:06:14.004Z,0.00
2022-08-18T01:07:13.991Z,0.00
2022-08-18T01:08:14.002Z,0.00
2022-08-18T01:09:14.000Z,0.00
2022-08-18T01:10:13.973Z,0.00
2022-08-18T01:11:14.019Z,0.00
2022-08-18T01:12:44.086Z,0.00
2022-08-18T01:13:14.971Z,0.00
2022-08-18T01:14:13.950Z,0.00
2022-08-18T01:15:28.003Z,0.00
2022-08-18T01:16:15.064Z,0.00
2022-08-18T01:17:13.946Z,0.00
2022-08-18T01:18:13.918Z,0.00
2022-08-18T01:19:13.924Z,0.00
2022-08-18T01:20:13.921Z,0.00
2022-08-18T01:21:13.921Z,0.00
2022-08-18T01:22:13.942Z,0.00
2022-08-18T01:23:13.926Z,0.00
2022-08-18T01:24:16.447Z,0.00
2022-08-18T01:25:13.895Z,0.00
2022-08-18T01:26:13.905Z,0.00
2022-08-18T01:27:13.919Z,0.00
2022-08-18T01:28:13.866Z,0.00
2022-08-18T01:29:18.880Z,0.00
2022-08-18T01:30:14.875Z,0.00
2022-08-18T01:31:13.867Z,0.00
2022-08-18T01:32:13.855Z,0.00
2022-08-18T01:33:13.893Z,0.00
2022-08-18T01:34:13.865Z,0.00
2022-08-18T01:35:13.856Z,0.00
2022-08-18T01:36:13.839Z,0.00
2022-08-18T01:37:13.840Z,0.00
2022-08-18T01:38:13.849Z,0.00
2022-08-18T01:39:13.804Z,0.00
2022-08-18T01:41:17.487Z,0.00
2022-08-18T01:41:27.719Z,0.00
2022-08-18T01:42:15.837Z,0.00
2022-08-18T01:43:13.799Z,0.00
2022-08-18T01:44:13.819Z,0.00
2022-08-18T01:45:13.780Z,0.00
2022-08-18T01:46:13.785Z,0.00
2022-08-18T01:47:13.770Z,0.00
2022-08-18T01:48:13.766Z,0.00
2022-08-18T01:49:13.781Z,0.00
2022-08-18T01:50:13.763Z,0.00
2022-08-18T01:51:13.743Z,0.00
2022-08-18T01:52:13.751Z,0.00
2022-08-18T01:53:13.735Z,0.00
2022-08-18T01:54:13.728Z,0.00
2022-08-18T01:55:14.621Z,0.00
2022-08-18T01:56:13.723Z,0.00
2022-08-18T01:57:13.721Z,0.00
2022-08-18T01:58:13.720Z,0.00
2022-08-18T01:59:13.698Z,0.00
2022-08-18T02:00:13.735Z,0.00
2022-08-18T02:01:13.712Z,0.00
2022-08-18T02:02:18.546Z,0.00
2022-08-18T02:03:13.673Z,0.00
2022-08-18T02:04:33.712Z,0.00
2022-08-18T02:05:15.702Z,0.00
2022-08-18T02:06:14.723Z,0.00
2022-08-18T02:07:13.665Z,0.00
2022-08-18T02:08:13.656Z,0.00
2022-08-18T02:09:13.645Z,0.00
2022-08-18T02:10:16.241Z,0.00
2022-08-18T02:11:13.754Z,0.00
2022-08-18T02:12:13.628Z,0.00
2022-08-18T02:13:13.630Z,0.00
2022-08-18T02:14:13.619Z,0.00
2022-08-18T02:15:13.624Z,0.00
2022-08-18T02:16:13.623Z,0.00
2022-08-18T02:17:13.603Z,0.00
2022-08-18T02:18:13.613Z,0.00
2022-08-18T02:19:14.574Z,0.00
2022-08-18T02:20:13.580Z,0.00
2022-08-18T02:21:13.581Z,0.00
2022-08-18T02:22:13.689Z,0.00
2022-08-18T02:23:13.549Z,0.00
2022-08-18T02:24:13.560Z,0.00
2022-08-18T02:25:13.551Z,0.00
2022-08-18T02:26:14.554Z,0.00
2022-08-18T02:27:13.657Z,0.00
2022-08-18T02:28:13.537Z,0.00
2022-08-18T02:29:13.537Z,0.00
2022-08-18T02:30:13.545Z,0.00
2022-08-18T02:31:13.519Z,0.00
2022-08-18T02:32:13.507Z,0.00
2022-08-18T02:33:13.530Z,0.00
2022-08-18T02:34:13.508Z,0.00
2022-08-18T02:35:13.501Z,0.00
2022-08-18T02:36:13.496Z,0.00
2022-08-18T02:37:15.533Z,0.00
2022-08-18T02:38:14.512Z,0.00
2022-08-18T02:39:13.492Z,0.00
2022-08-18T02:40:14.718Z,0.00
2022-08-18T02:41:13.451Z,0.00
2022-08-18T02:42:13.478Z,0.00
2022-08-18T02:43:13.467Z,0.00
2022-08-18T02:44:13.461Z,0.00
2022-08-18T02:45:13.438Z,0.00
2022-08-18T02:46:13.435Z,0.00
2022-08-18T02:47:13.430Z,0.00
2022-08-18T02:48:13.438Z,0.00
2022-08-18T02:49:13.442Z,0.00
2022-08-18T02:50:13.415Z,0.00
2022-08-18T02:51:13.396Z,0.00
2022-08-18T02:52:13.401Z,0.00
2022-08-18T02:53:13.414Z,0.00
2022-08-18T02:54:13.422Z,0.00
2022-08-18T02:55:13.398Z,0.00
2022-08-18T02:56:13.388Z,0.00
2022-08-18T02:57:13.364Z,0.00
2022-08-18T02:58:13.391Z,0.00
2022-08-18T02:59:13.382Z,0.00
2022-08-18T03:00:13.351Z,0.00
2022-08-18T03:01:13.384Z,0.00
2022-08-18T03:02:13.330Z,0.00
2022-08-18T03:03:14.373Z,0.00
2022-08-18T03:04:13.325Z,0.00
2022-08-18T03:05:14.806Z,0.00
2022-08-18T03:06:13.339Z,0.00
2022-08-18T03:07:13.328Z,0.00
2022-08-18T03:08:13.329Z,0.00
2022-08-18T03:09:13.329Z,0.00
2022-08-18T03:10:33.260Z,0.00
2022-08-18T03:11:13.288Z,0.00
2022-08-18T03:12:13.294Z,0.00
2022-08-18T03:13:13.307Z,0.00
2022-08-18T03:14:13.317Z,0.00
2022-08-18T03:15:13.276Z,0.00
2022-08-18T03:16:13.284Z,0.00
2022-08-18T03:17:13.270Z,0.00
2022-08-18T03:18:13.260Z,0.00
2022-08-18T03:19:13.248Z,0.00
2022-08-18T03:20:13.356Z,0.00
2022-08-18T03:21:13.246Z,0.00
2022-08-18T03:22:27.654Z,0.00
2022-08-18T03:23:14.236Z,0.00
2022-08-18T03:24:15.819Z,0.00
2022-08-18T03:25:13.239Z,0.00
2022-08-18T03:26:13.222Z,0.00
2022-08-18T03:27:13.200Z,0.00
2022-08-18T03:28:13.209Z,0.00
2022-08-18T03:29:13.187Z,0.00
2022-08-18T03:30:13.212Z,0.00
2022-08-18T03:31:13.203Z,0.00
2022-08-18T03:32:13.186Z,0.00
2022-08-18T03:33:13.178Z,0.00
2022-08-18T03:34:13.173Z,0.00
2022-08-18T03:35:13.151Z,0.00
2022-08-18T03:36:13.186Z,0.00
2022-08-18T03:37:13.143Z,0.00
2022-08-18T03:38:13.161Z,0.00
2022-08-18T03:39:13.144Z,0.00
2022-08-18T03:40:13.190Z,0.00
2022-08-18T03:41:13.136Z,0.00
2022-08-18T03:42:13.155Z,0.00
2022-08-18T03:43:49.471Z,0.00
2022-08-18T03:44:14.122Z,0.00
2022-08-18T03:45:17.762Z,0.00
2022-08-18T03:46:14.147Z,0.00
2022-08-18T03:47:13.153Z,0.00
2022-08-18T03:48:13.216Z,4.00
2022-08-18T03:49:13.087Z,4.00
2022-08-18T03:50:14.248Z,4.00
2022-08-18T03:51:13.115Z,0.00
2022-08-18T03:52:13.129Z,4.00
2022-08-18T03:53:13.107Z,4.00
2022-08-18T03:54:13.079Z,4.00
2022-08-18T03:55:13.058Z,4.00
2022-08-18T03:56:13.056Z,4.00
2022-08-18T03:57:13.057Z,8.00
2022-08-18T03:58:13.163Z,8.00
2022-08-18T03:59:13.042Z,12.00
2022-08-18T04:00:13.041Z,12.00
2022-08-18T04:01:13.109Z,12.00
2022-08-18T04:02:14.008Z,12.00
2022-08-18T04:03:13.021Z,20.00
2022-08-18T04:04:13.123Z,20.00
2022-08-18T04:05:12.997Z,20.00
2022-08-18T04:06:13.014Z,24.00
2022-08-18T04:07:12.988Z,28.00
2022-08-18T04:08:12.994Z,28.00
2022-08-18T04:09:13.008Z,32.00
2022-08-18T04:10:19.086Z,36.00
2022-08-18T04:11:13.978Z,36.00
2022-08-18T04:12:16.345Z,40.00
2022-08-18T04:13:12.982Z,44.00
2022-08-18T04:14:12.952Z,48.00
2022-08-18T04:15:12.994Z,52.00
2022-08-18T04:16:12.955Z,56.00
2022-08-18T04:17:12.957Z,60.00
2022-08-18T04:18:12.945Z,64.00
2022-08-18T04:19:12.936Z,68.00
2022-08-18T04:20:12.946Z,76.00
2022-08-18T04:21:12.926Z,76.00
2022-08-18T04:22:17.294Z,84.00
2022-08-18T04:23:13.914Z,84.00
2022-08-18T04:24:12.896Z,92.00
2022-08-18T04:25:12.891Z,96.00
2022-08-18T04:26:19.254Z,104.00
2022-08-18T04:27:12.925Z,112.00
2022-08-18T04:28:12.882Z,120.00
2022-08-18T04:29:12.878Z,128.00
2022-08-18T04:30:12.898Z,140.00
2022-08-18T04:31:12.886Z,144.00
2022-08-18T04:32:12.882Z,152.00
2022-08-18T04:33:12.846Z,164.00
2022-08-18T04:34:13.855Z,176.00
2022-08-18T04:35:14.262Z,184.00
2022-08-18T04:36:12.829Z,196.00
2022-08-18T04:37:12.848Z,212.00
2022-08-18T04:38:13.828Z,224.00
2022-08-18T04:39:12.816Z,240.00
2022-08-18T04:40:12.947Z,256.00
2022-08-18T04:41:12.809Z,272.00
2022-08-18T04:42:12.819Z,292.00
2022-08-18T04:43:12.787Z,312.00
2022-08-18T04:44:12.799Z,336.00
2022-08-18T04:45:12.775Z,352.00
2022-08-18T04:46:12.798Z,364.00
2022-08-18T04:47:12.778Z,384.00
2022-08-18T04:48:12.885Z,392.00
2022-08-18T04:49:12.761Z,404.00
2022-08-18T04:50:12.752Z,412.00
2022-08-18T04:51:12.746Z,424.00
2022-08-18T04:52:34.135Z,428.00
2022-08-18T04:53:13.846Z,436.00
2022-08-18T04:54:12.792Z,440.00
2022-08-18T04:55:12.723Z,444.00
2022-08-18T04:56:12.740Z,448.00
2022-08-18T04:57:12.719Z,448.00
2022-08-18T04:58:12.698Z,448.00
2022-08-18T04:59:12.837Z,448.00
2022-08-18T05:00:12.693Z,448.00
2022-08-18T05:01:12.711Z,444.00
2022-08-18T05:02:14.773Z,448.00
2022-08-18T05:03:13.675Z,448.00
2022-08-18T05:04:12.785Z,452.00
2022-08-18T05:05:12.670Z,460.00
2022-08-18T05:06:12.658Z,476.00
2022-08-18T05:07:13.654Z,496.00
2022-08-18T05:08:12.651Z,524.00
2022-08-18T05:09:12.639Z,552.00
2022-08-18T05:10:12.753Z,580.00
2022-08-18T05:11:12.648Z,608.00
2022-08-18T05:12:12.641Z,644.00
2022-08-18T05:13:12.620Z,680.00
2022-08-18T05:14:12.614Z,720.00
2022-08-18T05:15:12.635Z,760.00
2022-08-18T05:16:18.162Z,796.00
2022-08-18T05:17:12.596Z,824.00
2022-08-18T05:18:13.947Z,840.00
2022-08-18T05:19:12.591Z,852.00
2022-08-18T05:20:12.587Z,860.00
2022-08-18T05:21:12.601Z,864.00
2022-08-18T05:22:12.591Z,864.00
2022-08-18T05:23:12.580Z,872.00
2022-08-18T05:24:12.576Z,880.00
2022-08-18T05:25:12.574Z,896.00
2022-08-18T05:26:12.682Z,928.00
2022-08-18T05:27:12.534Z,964.00
2022-08-18T05:28:12.560Z,1012.00
2022-08-18T05:29:18.628Z,1064.00
2022-08-18T05:30:13.543Z,1124.00
2022-08-18T05:31:13.951Z,1164.00
2022-08-18T05:32:40.995Z,1184.00
2022-08-18T05:33:13.509Z,1204.00
2022-08-18T05:34:12.513Z,1224.00
2022-08-18T05:35:12.520Z,1232.00
2022-08-18T05:36:12.495Z,1236.00
2022-08-18T05:37:12.507Z,1232.00
2022-08-18T05:38:12.487Z,1220.00
2022-08-18T05:39:12.493Z,1200.00
2022-08-18T05:40:12.562Z,1184.00
2022-08-18T05:41:13.765Z,1180.00
2022-08-18T05:42:12.463Z,1192.00
2022-08-18T05:43:12.496Z,1208.00
2022-08-18T05:44:12.460Z,1232.00
2022-08-18T05:45:12.457Z,1272.00
2022-08-18T05:46:12.458Z,1312.00
2022-08-18T05:47:12.426Z,1368.00
2022-08-18T05:48:12.463Z,1416.00
2022-08-18T05:49:12.419Z,1464.00
2022-08-18T05:50:13.412Z,1500.00
2022-08-18T05:51:12.412Z,1532.00
2022-08-18T05:52:12.414Z,1548.00
2022-08-18T05:53:13.582Z,1556.00
2022-08-18T05:54:12.439Z,1568.00
2022-08-18T05:55:12.402Z,1576.00
2022-08-18T05:56:12.425Z,1592.00
2022-08-18T05:57:12.377Z,1616.00
2022-08-18T05:58:12.387Z,1648.00
2022-08-18T05:59:12.387Z,1660.00
2022-08-18T06:00:12.374Z,1680.00
2022-08-18T06:01:12.371Z,1700.00
2022-08-18T06:02:12.362Z,1728.00
2022-08-18T06:03:12.425Z,1752.00
2022-08-18T06:04:12.339Z,1760.00
2022-08-18T06:05:12.445Z,1756.00
2022-08-18T06:06:13.164Z,1740.00
2022-08-18T06:07:12.354Z,1720.00
2022-08-18T06:08:12.322Z,1712.00
2022-08-18T06:09:12.308Z,1708.00
2022-08-18T06:10:12.348Z,1708.00
2022-08-18T06:11:17.287Z,1728.00
2022-08-18T06:12:13.314Z,1768.00
2022-08-18T06:13:12.294Z,1820.00
2022-08-18T06:14:12.280Z,1884.00
2022-08-18T06:15:12.276Z,1920.00
2022-08-18T06:16:12.306Z,1920.00
2022-08-18T06:17:12.272Z,1888.00
2022-08-18T06:18:12.266Z,1832.00
2022-08-18T06:19:12.270Z,1748.00
2022-08-18T06:20:12.259Z,1668.00
2022-08-18T06:21:12.356Z,1620.00
2022-08-18T06:22:12.252Z,1612.00
2022-08-18T06:23:12.248Z,1636.00
2022-08-18T06:24:12.246Z,1684.00
2022-08-18T06:25:12.227Z,1756.00
2022-08-18T06:26:12.220Z,1832.00
2022-08-18T06:27:12.334Z,1900.00
2022-08-18T06:28:12.225Z,1964.00
2022-08-18T06:29:12.198Z,2012.00
2022-08-18T06:30:12.186Z,2048.00
2022-08-18T06:31:12.198Z,2080.00
2022-08-18T06:32:12.286Z,2112.00
2022-08-18T06:33:12.181Z,2144.00
2022-08-18T06:34:12.168Z,2164.00
2022-08-18T06:35:12.176Z,2180.00
2022-08-18T06:36:12.171Z,2188.00
2022-08-18T06:37:12.166Z,2192.00
2022-08-18T06:38:12.180Z,2180.00
2022-08-18T06:39:12.140Z,2176.00
2022-08-18T06:40:12.196Z,2180.00
2022-08-18T06:41:42.064Z,2184.00
2022-08-18T06:42:13.149Z,2188.00
2022-08-18T06:43:12.156Z,2184.00
2022-08-18T06:44:12.129Z,2184.00
2022-08-18T06:45:12.128Z,2140.00
2022-08-18T06:46:12.114Z,2188.00
2022-08-18T06:47:12.105Z,2156.00
2022-08-18T06:48:15.244Z,2132.00
2022-08-18T06:49:12.256Z,2116.00
2022-08-18T06:50:12.093Z,2112.00
2022-08-18T06:51:12.099Z,2108.00
2022-08-18T06:52:12.073Z,2104.00
2022-08-18T06:53:25.902Z,2104.00
2022-08-18T06:54:13.091Z,2092.00
2022-08-18T06:55:12.063Z,2072.00
2022-08-18T06:56:26.504Z,2024.00
2022-08-18T06:57:13.049Z,1976.00
2022-08-18T06:58:12.049Z,1928.00
2022-08-18T06:59:12.043Z,1880.00
2022-08-18T07:00:12.179Z,1836.00
2022-08-18T07:01:12.108Z,1776.00
2022-08-18T07:02:12.023Z,1720.00
2022-08-18T07:03:12.016Z,1672.00
2022-08-18T07:04:12.012Z,1640.00
2022-08-18T07:05:12.956Z,1632.00
2022-08-18T07:06:12.005Z,1668.00
2022-08-18T07:07:11.995Z,1716.00
2022-08-18T07:08:11.997Z,1784.00
2022-08-18T07:09:11.979Z,1852.00
2022-08-18T07:10:11.978Z,1916.00
2022-08-18T07:11:12.099Z,1956.00
2022-08-18T07:12:11.969Z,1984.00
2022-08-18T07:13:11.953Z,1996.00
2022-08-18T07:14:16.632Z,2012.00
2022-08-18T07:15:11.957Z,2016.00
2022-08-18T07:16:11.967Z,2008.00
2022-08-18T07:17:11.951Z,2008.00
2022-08-18T07:18:11.989Z,2028.00
2022-08-18T07:19:11.935Z,2064.00
2022-08-18T07:20:11.915Z,2116.00
2022-08-18T07:21:11.903Z,2188.00
2022-08-18T07:22:12.071Z,2284.00
2022-08-18T07:23:11.914Z,2420.00
2022-08-18T07:24:24.999Z,2572.00
2022-08-18T07:25:13.903Z,2752.00
2022-08-18T07:26:11.878Z,2968.00
2022-08-18T07:27:11.906Z,3216.00
2022-08-18T07:28:11.888Z,3492.00
2022-08-18T07:29:11.871Z,3828.00
2022-08-18T07:30:15.765Z,4240.00
2022-08-18T07:31:16.877Z,4640.00
2022-08-18T07:32:21.264Z,4972.00
2022-08-18T07:33:13.848Z,5124.00
2022-08-18T07:34:11.830Z,5076.00
2022-08-18T07:35:11.824Z,4936.00
2022-08-18T07:36:11.864Z,4860.00
2022-08-18T07:37:11.821Z,4932.00
2022-08-18T07:38:40.642Z,5140.00
2022-08-18T07:39:13.826Z,5396.00
2022-08-18T07:40:11.877Z,5032.00
2022-08-18T07:41:11.821Z,4512.00
2022-08-18T07:42:11.782Z,4316.00
2022-08-18T07:43:11.805Z,4172.00
2022-08-18T07:44:13.924Z,4060.00
2022-08-18T07:45:12.782Z,3976.00
2022-08-18T07:46:11.796Z,3904.00
2022-08-18T07:47:11.767Z,3776.00
2022-08-18T07:48:34.881Z,3624.00
2022-08-18T07:49:12.793Z,3480.00
2022-08-18T07:50:27.289Z,3356.00
2022-08-18T07:51:13.751Z,3280.00
2022-08-18T07:52:14.638Z,3196.00
2022-08-18T07:53:12.766Z,3120.00
2022-08-18T07:54:31.080Z,3076.00
2022-08-18T07:55:12.746Z,3080.00
2022-08-18T07:56:11.728Z,3104.00
2022-08-18T07:57:15.238Z,3140.00
2022-08-18T07:58:12.739Z,3192.00
2022-08-18T07:59:11.719Z,3248.00
2022-08-18T08:00:23.122Z,3272.00
2022-08-18T08:01:12.691Z,3256.00
2022-08-18T08:02:11.735Z,3232.00
2022-08-18T08:03:11.663Z,3200.00
2022-08-18T08:04:25.474Z,3148.00
2022-08-18T08:05:12.686Z,3080.00
2022-08-18T08:06:11.660Z,2992.00
2022-08-18T08:07:26.507Z,2896.00
2022-08-18T08:08:13.653Z,2804.00
2022-08-18T08:09:11.663Z,2720.00
2022-08-18T08:10:11.663Z,2636.00
2022-08-18T08:11:11.675Z,2548.00
2022-08-18T08:12:11.639Z,2440.00
2022-08-18T08:13:11.625Z,2332.00
2022-08-18T08:14:11.656Z,2216.00
2022-08-18T08:15:11.620Z,2104.00
2022-08-18T08:16:11.618Z,1976.00
2022-08-18T08:17:11.612Z,1824.00
2022-08-18T08:18:11.680Z,1664.00
2022-08-18T08:19:12.164Z,1512.00
2022-08-18T08:20:11.591Z,1388.00
2022-08-18T08:21:11.585Z,1288.00
2022-08-18T08:22:11.591Z,1216.00
2022-08-18T08:23:11.568Z,1164.00
2022-08-18T08:24:11.572Z,1128.00
2022-08-18T08:25:35.178Z,1104.00
2022-08-18T08:26:13.592Z,1096.00
2022-08-18T08:27:11.566Z,1084.00
2022-08-18T08:28:12.316Z,1072.00
2022-08-18T08:29:11.601Z,1056.00
2022-08-18T08:30:11.641Z,1028.00
2022-08-18T08:31:35.942Z,1000.00
2022-08-18T08:32:13.568Z,980.00
2022-08-18T08:33:11.526Z,972.00
2022-08-18T08:34:11.520Z,976.00
2022-08-18T08:35:16.040Z,988.00
2022-08-18T08:36:12.530Z,1016.00
2022-08-18T08:37:11.513Z,1048.00
2022-08-18T08:38:39.241Z,1088.00
2022-08-18T08:39:13.486Z,1136.00
2022-08-18T08:40:11.616Z,1188.00
2022-08-18T08:41:11.586Z,1232.00
2022-08-18T08:42:31.350Z,1264.00
2022-08-18T08:43:11.468Z,1284.00
2022-08-18T08:44:11.467Z,1296.00
2022-08-18T08:45:11.463Z,1292.00
2022-08-18T08:46:11.452Z,1284.00
2022-08-18T08:47:11.482Z,1256.00
2022-08-18T08:48:11.457Z,1220.00
2022-08-18T08:49:11.447Z,1184.00
2022-08-18T08:50:11.420Z,1156.00
2022-08-18T08:51:11.427Z,1120.00
2022-08-18T08:52:11.465Z,1092.00
2022-08-18T08:53:11.420Z,1068.00
2022-08-18T08:54:11.406Z,1048.00
2022-08-18T08:55:11.384Z,1036.00
2022-08-18T08:56:12.411Z,1016.00
2022-08-18T08:57:11.409Z,1004.00
2022-08-18T08:58:11.428Z,996.00
2022-08-18T08:59:11.380Z,992.00
2022-08-18T09:00:11.388Z,988.00
2022-08-18T09:01:11.376Z,1000.00
2022-08-18T09:02:22.649Z,1008.00
2022-08-18T09:03:12.374Z,1024.00
2022-08-18T09:04:11.356Z,1044.00
2022-08-18T09:05:11.354Z,1076.00
2022-08-18T09:06:11.348Z,1112.00
2022-08-18T09:07:11.376Z,1152.00
2022-08-18T09:08:11.335Z,1192.00
2022-08-18T09:09:11.363Z,1232.00
2022-08-18T09:10:11.323Z,1264.00
2022-08-18T09:11:11.325Z,1292.00
2022-08-18T09:12:11.313Z,1316.00
2022-08-18T09:13:11.314Z,1328.00
2022-08-18T09:14:11.326Z,1340.00
2022-08-18T09:15:11.298Z,1352.00
2022-08-18T09:16:13.485Z,1356.00
2022-08-18T09:17:11.303Z,1368.00
2022-08-18T09:18:11.276Z,1380.00
2022-08-18T09:19:11.269Z,1400.00
2022-08-18T09:20:11.386Z,1424.00
2022-08-18T09:21:11.271Z,1440.00
2022-08-18T09:22:11.265Z,1460.00
2022-08-18T09:23:11.253Z,1484.00
2022-08-18T09:24:11.252Z,1516.00
2022-08-18T09:25:11.276Z,1556.00
2022-08-18T09:26:11.246Z,1588.00
2022-08-18T09:27:11.231Z,1616.00
2022-08-18T09:28:11.810Z,1652.00
2022-08-18T09:29:11.216Z,1692.00
2022-08-18T09:30:11.233Z,1732.00
2022-08-18T09:31:11.323Z,1772.00
2022-08-18T09:32:11.732Z,1820.00
2022-08-18T09:33:18.861Z,1876.00
2022-08-18T09:34:12.195Z,1948.00
2022-08-18T09:35:11.179Z,2020.00
2022-08-18T09:36:11.320Z,2116.00
2022-08-18T09:37:11.202Z,2228.00
2022-08-18T09:38:11.360Z,2340.00
2022-08-18T09:39:11.168Z,2452.00
2022-08-18T09:40:12.857Z,2568.00
2022-08-18T09:41:11.215Z,2684.00
2022-08-18T09:42:11.246Z,2796.00
2022-08-18T09:43:11.144Z,2920.00
2022-08-18T09:45:12.134Z,3196.00
2022-08-18T09:47:43.189Z,3520.00
2022-08-18T09:48:11.136Z,3696.00
2022-08-18T09:49:11.119Z,3876.00
2022-08-18T09:50:24.536Z,4036.00
2022-08-18T09:51:12.092Z,4192.00
2022-08-18T09:52:11.086Z,4308.00
2022-08-18T09:53:11.201Z,4404.00
2022-08-18T09:54:11.060Z,4452.00
2022-08-18T09:55:11.076Z,4492.00
2022-08-18T09:56:11.058Z,4496.00
2022-08-18T09:57:11.067Z,4444.00
2022-08-18T09:58:11.046Z,4388.00
2022-08-18T09:59:11.311Z,4296.00
2022-08-18T10:00:11.036Z,4200.00
2022-08-18T10:01:11.071Z,4104.00
2022-08-18T10:02:18.826Z,4008.00
2022-08-18T10:03:12.046Z,3924.00
2022-08-18T10:04:12.161Z,3844.00
2022-08-18T10:05:11.002Z,3736.00
2022-08-18T10:06:12.526Z,3640.00
2022-08-18T10:07:10.992Z,3576.00
2022-08-18T10:08:10.992Z,3560.00
2022-08-18T10:09:14.702Z,3588.00
2022-08-18T10:10:12.971Z,3604.00
2022-08-18T10:11:11.974Z,3608.00
2022-08-18T10:12:16.010Z,3576.00
2022-08-18T10:13:10.957Z,3524.00
2022-08-18T10:14:10.985Z,3484.00
2022-08-18T10:15:10.961Z,3480.00
2022-08-18T10:16:11.387Z,3516.00
2022-08-18T10:17:23.338Z,3636.00
2022-08-18T10:18:12.960Z,3820.00
2022-08-18T10:19:10.973Z,4092.00
2022-08-18T10:20:25.967Z,4356.00
2022-08-18T10:21:11.936Z,4528.00
2022-08-18T10:22:10.935Z,4660.00
2022-08-18T10:23:10.919Z,4760.00
2022-08-18T10:25:22.834Z,4844.00
2022-08-18T10:26:13.450Z,4808.00
2022-08-18T10:27:11.897Z,4752.00
2022-08-18T10:28:11.946Z,4692.00
2022-08-18T10:29:10.895Z,4616.00
2022-08-18T10:30:12.206Z,4584.00
2022-08-18T10:31:10.875Z,4592.00
2022-08-18T10:32:14.228Z,4612.00
2022-08-18T10:33:18.344Z,4632.00
2022-08-18T10:34:19.258Z,4612.00
2022-08-18T10:35:12.953Z,4548.00
2022-08-18T10:36:11.152Z,4448.00
2022-08-18T10:37:10.825Z,4324.00
2022-08-18T10:38:10.850Z,4200.00
2022-08-18T10:39:10.849Z,4072.00
2022-08-18T10:41:15.430Z,3936.00
2022-08-18T10:42:11.066Z,3944.00
2022-08-18T10:43:45.986Z,3960.00
2022-08-18T10:44:28.252Z,3928.00
2022-08-18T10:45:12.807Z,3852.00
2022-08-18T10:46:29.449Z,3800.00
2022-08-18T10:47:12.778Z,3712.00
2022-08-18T10:48:16.876Z,3724.00
2022-08-18T10:49:10.767Z,3724.00
2022-08-18T10:50:10.890Z,3700.00
2022-08-18T10:51:10.758Z,3696.00
2022-08-18T10:52:10.803Z,3712.00
2022-08-18T10:53:38.527Z,3712.00
2022-08-18T10:54:12.752Z,3732.00
2022-08-18T10:55:11.755Z,3796.00
2022-08-18T10:56:10.738Z,3908.00
2022-08-18T10:57:10.906Z,4036.00
2022-08-18T10:58:10.719Z,4208.00
2022-08-18T10:59:16.087Z,4436.00
2022-08-18T11:00:10.864Z,4728.00
2022-08-18T11:01:10.696Z,5044.00
2022-08-18T11:02:10.717Z,5412.00
2022-08-18T11:04:14.379Z,5648.00
2022-08-18T11:05:10.682Z,5512.00
2022-08-18T11:06:14.554Z,5348.00
2022-08-18T11:07:11.672Z,5228.00
2022-08-18T11:08:15.570Z,5204.00
2022-08-18T11:09:11.674Z,5184.00
2022-08-18T11:10:28.581Z,5148.00
2022-08-18T11:11:34.151Z,5036.00
2022-08-18T11:12:12.636Z,4916.00
2022-08-18T11:13:10.639Z,4784.00
2022-08-18T11:14:10.667Z,4652.00
2022-08-18T11:15:23.090Z,4420.00
2022-08-18T11:16:13.320Z,4152.00
2022-08-18T11:17:10.623Z,3904.00
2022-08-18T11:18:10.820Z,3688.00
2022-08-18T11:19:11.384Z,3524.00
2022-08-18T11:20:10.597Z,3404.00
2022-08-18T11:21:13.671Z,3308.00
2022-08-18T11:23:11.574Z,3100.00
2022-08-18T11:24:11.608Z,3000.00
2022-08-18T11:25:11.623Z,2924.00
2022-08-18T11:26:10.568Z,2900.00
2022-08-18T11:27:15.415Z,2940.00
2022-08-18T11:28:11.569Z,3012.00
2022-08-18T11:29:10.542Z,3112.00
2022-08-18T11:30:13.461Z,3244.00
2022-08-18T11:31:10.545Z,3408.00
2022-08-18T11:33:11.522Z,3852.00
2022-08-18T11:34:11.860Z,4096.00
2022-08-18T11:35:11.545Z,4376.00
2022-08-18T11:36:10.520Z,4644.00
2022-08-18T11:37:10.505Z,4824.00
2022-08-18T11:38:12.390Z,4912.00
2022-08-18T11:39:10.501Z,4976.00
2022-08-18T11:40:14.074Z,5000.00
2022-08-18T11:41:12.895Z,4992.00
2022-08-18T11:42:15.784Z,4940.00
2022-08-18T11:43:11.560Z,4816.00
2022-08-18T11:44:10.474Z,4616.00
2022-08-18T11:45:10.476Z,4376.00
2022-08-18T11:46:10.455Z,4136.00
2022-08-18T11:47:10.586Z,3936.00
2022-08-18T11:48:10.453Z,3776.00
2022-08-18T11:49:11.456Z,3684.00
2022-08-18T11:50:10.451Z,3648.00
2022-08-18T11:51:10.437Z,3600.00
2022-08-18T11:52:10.470Z,3552.00
2022-08-18T11:53:10.425Z,3488.00
2022-08-18T11:54:10.431Z,3396.00
2022-08-18T11:55:14.315Z,3296.00
2022-08-18T11:57:11.424Z,3096.00
2022-08-18T11:58:12.713Z,2936.00
2022-08-18T11:59:11.679Z,2728.00
2022-08-18T12:00:10.389Z,2572.00
2022-08-18T12:01:10.409Z,2476.00
2022-08-18T12:02:10.390Z,2456.00
2022-08-18T12:03:10.472Z,2472.00
2022-08-18T12:04:10.422Z,2504.00
2022-08-18T12:05:10.756Z,2576.00
2022-08-18T12:06:10.387Z,2672.00
2022-08-18T12:07:11.374Z,2796.00
2022-08-18T12:08:11.349Z,2916.00
2022-08-18T12:09:16.389Z,3024.00
2022-08-18T12:10:17.693Z,3104.00
2022-08-18T12:11:26.764Z,3124.00
2022-08-18T12:12:10.359Z,3108.00
2022-08-18T12:13:11.461Z,3064.00
2022-08-18T12:14:32.703Z,3036.00
2022-08-18T12:15:17.163Z,3112.00
2022-08-18T12:16:11.321Z,3264.00
2022-08-18T12:17:10.323Z,3492.00
2022-08-18T12:18:10.313Z,3700.00
2022-08-18T12:19:12.177Z,3808.00
2022-08-18T12:20:11.897Z,3824.00
2022-08-18T12:21:10.288Z,3756.00
2022-08-18T12:22:11.983Z,3620.00
2022-08-18T12:23:11.378Z,3504.00
2022-08-18T12:24:10.265Z,3412.00
2022-08-18T12:25:12.108Z,3360.00
2022-08-18T12:26:26.951Z,3368.00
2022-08-18T12:27:12.550Z,3408.00
2022-08-18T12:28:10.986Z,3472.00
2022-08-18T12:29:11.243Z,3532.00
2022-08-18T12:30:16.439Z,3580.00
2022-08-18T12:31:14.999Z,3640.00
2022-08-18T12:32:17.842Z,3708.00
2022-08-18T12:33:12.553Z,3736.00
2022-08-18T12:34:13.584Z,3732.00
2022-08-18T12:35:10.217Z,3716.00
2022-08-18T12:36:10.193Z,3688.00
2022-08-18T12:37:34.038Z,3648.00
2022-08-18T12:38:13.905Z,3580.00
2022-08-18T12:39:10.187Z,3508.00